Lake Mills, Wisconsin
Current Conditions -  °F | °C
As of 8:55 PM on Friday 21 Nov 2014 (Local Time) from KRYV Reporting Station
Overcast Overcast  
Wind Chill: 21°   Ceiling: 2700
Heat Index: 29°   Visibility: 10mi
Dew Point: 10°   Wind: 9mph
Humidity: 46%   Direction: 180°S
Pressure: 30.14"   Gusts: 21mph
Location:  43.08°N, 88.91°W
Report Text: KRYV 220255Z AUTO 18008G18KT 10SM OVC027 M02/M12 A3014 RMK AO2 T10161120
Loading
Personal Weather Stations






























Interactive Weather Map New forecast layout! Learn more

10-Day Weather Forecast

Advertisements
Track Severe Weather on mobile